createdAt,value
2023-03-17T00:03:35.870Z,79.80
2023-03-17T00:08:43.004Z,79.41
2023-03-17T00:13:49.395Z,79.12
2023-03-17T00:18:56.828Z,79.16
2023-03-17T00:24:03.952Z,79.12
2023-03-17T00:29:16.049Z,79.06
2023-03-17T00:34:22.040Z,79.15
2023-03-17T00:39:25.565Z,78.96
2023-03-17T00:44:34.847Z,78.55
2023-03-17T00:49:40.571Z,78.84
2023-03-17T00:54:46.975Z,78.75
2023-03-17T01:00:09.057Z,78.94
2023-03-17T01:05:14.018Z,78.92
2023-03-17T01:10:20.282Z,78.84
2023-03-17T01:15:33.673Z,78.90
2023-03-17T01:20:39.464Z,78.73
2023-03-17T01:25:45.064Z,79.47
2023-03-17T01:30:50.993Z,79.60
2023-03-17T01:35:55.715Z,79.54
2023-03-17T01:41:04.272Z,80.42
2023-03-17T01:46:38.343Z,82.41
2023-03-17T01:51:56.576Z,82.02
2023-03-17T01:57:28.379Z,82.66
2023-03-17T02:02:39.252Z,82.03
2023-03-17T02:07:56.499Z,81.91
2023-03-17T02:13:11.278Z,81.60
2023-03-17T02:20:28.344Z,81.51
2023-03-17T02:25:41.730Z,80.61
2023-03-17T02:30:46.910Z,81.01
2023-03-17T02:36:01.234Z,81.22
2023-03-17T02:41:06.869Z,81.11
2023-03-17T02:46:17.451Z,81.10
2023-03-17T02:51:22.105Z,80.84
2023-03-17T02:56:33.021Z,80.85
2023-03-17T03:01:43.345Z,80.10
2023-03-17T03:06:49.161Z,79.58
2023-03-17T03:11:55.032Z,79.44
2023-03-17T03:17:04.925Z,79.29
2023-03-17T03:22:15.803Z,79.26
2023-03-17T03:27:26.702Z,79.30
2023-03-17T03:32:30.558Z,79.18
2023-03-17T03:37:39.123Z,79.19
2023-03-17T03:42:44.120Z,79.30
2023-03-17T03:47:48.804Z,79.65
2023-03-17T03:53:04.821Z,79.81
2023-03-17T03:58:14.237Z,79.96
2023-03-17T04:03:21.833Z,80.12
2023-03-17T04:08:27.134Z,80.39
2023-03-17T04:13:32.880Z,80.68
2023-03-17T04:18:37.266Z,80.22
2023-03-17T04:23:47.716Z,80.66
2023-03-17T04:28:55.075Z,80.72
2023-03-17T04:34:03.035Z,80.85
2023-03-17T04:39:06.188Z,80.23
2023-03-17T04:44:15.160Z,80.34
2023-03-17T04:49:24.220Z,80.32
2023-03-17T04:54:29.467Z,79.95
2023-03-17T04:59:35.276Z,80.00
2023-03-17T05:12:49.789Z,79.75
2023-03-17T05:17:51.972Z,79.47
2023-03-17T05:22:53.880Z,80.19
2023-03-17T05:27:56.173Z,78.96
2023-03-17T05:32:58.853Z,78.91
2023-03-17T05:38:01.043Z,79.07
2023-03-17T05:43:03.543Z,80.09
2023-03-17T05:48:06.386Z,78.30
2023-03-17T05:53:08.874Z,78.48
2023-03-17T05:58:10.880Z,78.53
2023-03-17T06:03:13.793Z,78.66
2023-03-17T06:08:15.885Z,78.65
2023-03-17T06:13:19.021Z,80.23
2023-03-17T06:18:21.270Z,78.63
2023-03-17T06:23:23.895Z,78.74
2023-03-17T06:28:26.181Z,78.44
2023-03-17T06:33:32.757Z,78.31
2023-03-17T06:38:35.193Z,78.49
2023-03-17T06:43:37.494Z,79.53
2023-03-17T06:48:39.465Z,78.43
2023-03-17T06:53:41.627Z,78.25
2023-03-17T06:58:43.557Z,78.34
2023-03-17T07:03:45.684Z,77.81
2023-03-17T07:08:47.861Z,77.68
2023-03-17T07:13:51.100Z,78.77
2023-03-17T07:18:53.465Z,77.18
2023-03-17T07:23:56.403Z,77.44
2023-03-17T07:29:01.008Z,77.81
2023-03-17T07:34:06.821Z,77.83
2023-03-17T07:39:11.480Z,77.88
2023-03-17T07:44:14.150Z,77.92
2023-03-17T07:49:17.256Z,77.95
2023-03-17T07:54:19.451Z,77.82
2023-03-17T07:59:21.885Z,77.69
2023-03-17T08:04:27.259Z,76.61
2023-03-17T08:09:32.247Z,74.10
2023-03-17T08:14:37.748Z,72.85
2023-03-17T08:19:40.403Z,72.88
2023-03-17T08:24:43.730Z,72.58
2023-03-17T08:29:47.217Z,71.73
2023-03-17T08:34:55.615Z,69.85
2023-03-17T08:39:58.228Z,68.09
2023-03-17T08:45:00.470Z,67.46
2023-03-17T08:50:02.563Z,67.51
2023-03-17T08:55:05.175Z,66.99
2023-03-17T09:00:11.181Z,66.38
2023-03-17T09:05:16.099Z,66.00
2023-03-17T09:10:22.667Z,66.46
2023-03-17T09:15:24.863Z,66.60
2023-03-17T09:20:27.138Z,65.78
2023-03-17T09:25:31.237Z,65.17
2023-03-17T09:30:33.985Z,65.16
2023-03-17T09:35:36.516Z,65.07
2023-03-17T09:40:57.111Z,65.12
2023-03-17T09:46:17.264Z,66.32
2023-03-17T09:51:20.083Z,67.31
2023-03-17T09:56:24.100Z,67.21
2023-03-17T10:01:29.926Z,66.37
2023-03-17T10:06:39.028Z,64.92
2023-03-17T10:11:46.094Z,64.11
2023-03-17T10:17:01.586Z,62.61
2023-03-17T10:22:27.348Z,61.42
2023-03-17T10:27:34.915Z,61.77
2023-03-17T10:32:41.174Z,61.96
2023-03-17T10:37:46.364Z,62.90
2023-03-17T10:42:53.835Z,62.34
2023-03-17T10:47:58.528Z,63.63
2023-03-17T10:53:05.005Z,62.70
2023-03-17T10:58:15.624Z,61.40
2023-03-17T11:03:31.310Z,59.76
2023-03-17T11:08:36.286Z,59.99
2023-03-17T11:13:38.610Z,60.02
2023-03-17T11:18:43.273Z,60.42
2023-03-17T11:23:56.565Z,61.89
2023-03-17T11:29:27.718Z,61.71
2023-03-17T11:34:35.351Z,61.30
2023-03-17T11:40:02.973Z,60.94
2023-03-17T11:45:33.624Z,59.42
2023-03-17T11:50:44.513Z,57.75
2023-03-17T11:55:53.231Z,57.48
2023-03-17T12:01:00.452Z,57.48
2023-03-17T12:06:07.458Z,58.77
2023-03-17T12:11:15.356Z,58.34
2023-03-17T12:16:34.844Z,58.42
2023-03-17T12:21:45.726Z,58.98
2023-03-17T12:27:07.598Z,57.20
2023-03-17T12:32:38.142Z,57.52
2023-03-17T12:37:43.525Z,57.65
2023-03-17T12:42:54.547Z,58.19
2023-03-17T12:48:34.075Z,58.41
2023-03-17T12:53:56.514Z,59.72
2023-03-17T12:59:30.041Z,60.33
2023-03-17T13:04:56.775Z,60.63
2023-03-17T13:10:01.315Z,61.27
2023-03-17T13:15:03.811Z,59.94
2023-03-17T13:20:08.713Z,59.77
2023-03-17T13:25:33.600Z,60.82
2023-03-17T13:30:36.527Z,60.95
2023-03-17T13:36:16.548Z,62.06
2023-03-17T13:41:32.025Z,62.56
2023-03-17T13:46:44.224Z,63.28
2023-03-17T13:52:00.339Z,62.75
2023-03-17T13:57:22.785Z,62.47
2023-03-17T14:02:27.916Z,62.30
2023-03-17T14:07:49.601Z,61.53
2023-03-17T14:13:07.938Z,61.09
2023-03-17T14:18:16.539Z,61.66
2023-03-17T14:23:18.731Z,61.94
2023-03-17T14:28:34.624Z,61.61
2023-03-17T14:33:38.812Z,62.45
2023-03-17T14:38:50.683Z,62.24
2023-03-17T14:44:00.101Z,62.89
2023-03-17T14:49:16.431Z,63.90
2023-03-17T14:54:25.699Z,63.26
2023-03-17T14:59:41.122Z,63.23
2023-03-17T15:05:01.277Z,63.92
2023-03-17T15:10:18.108Z,64.33
2023-03-17T15:15:25.896Z,64.45
2023-03-17T15:20:31.584Z,64.75
2023-03-17T15:25:35.214Z,65.02
2023-03-17T15:30:47.438Z,64.92
2023-03-17T15:36:02.968Z,65.12
2023-03-17T15:41:05.076Z,64.70
2023-03-17T15:46:20.312Z,65.11
2023-03-17T15:51:22.617Z,65.22
2023-03-17T15:56:27.295Z,65.46
2023-03-17T16:01:31.720Z,65.14
2023-03-17T16:06:35.006Z,65.47
2023-03-17T16:11:38.832Z,65.56
2023-03-17T16:16:45.943Z,66.32
2023-03-17T16:21:48.389Z,66.40
2023-03-17T16:26:50.974Z,66.54
2023-03-17T16:31:53.131Z,66.83
2023-03-17T16:36:56.463Z,67.16
2023-03-17T16:41:59.676Z,67.29
2023-03-17T16:47:02.207Z,67.29
2023-03-17T16:52:08.396Z,67.77
2023-03-17T16:57:12.924Z,67.67
2023-03-17T17:02:17.892Z,67.99
2023-03-17T17:07:19.934Z,68.77
2023-03-17T17:12:21.723Z,70.83
2023-03-17T17:17:23.943Z,69.36
2023-03-17T17:22:26.178Z,70.06
2023-03-17T17:27:28.268Z,70.13
2023-03-17T17:32:30.227Z,72.89
2023-03-17T17:37:35.411Z,71.16
2023-03-17T17:42:37.713Z,71.09
2023-03-17T17:47:43.349Z,72.03
2023-03-17T17:52:54.142Z,72.35
2023-03-17T17:57:56.583Z,72.16
2023-03-17T18:02:59.179Z,72.23
2023-03-17T18:08:02.524Z,73.49
2023-03-17T18:13:07.212Z,73.24
2023-03-17T18:18:09.875Z,73.93
2023-03-17T18:23:12.264Z,73.85
2023-03-17T18:28:14.242Z,74.04
2023-03-17T18:33:17.708Z,74.88
2023-03-17T18:38:19.683Z,73.49
2023-03-17T18:43:22.378Z,74.40
2023-03-17T18:48:24.440Z,74.48
2023-03-17T18:53:27.589Z,75.80
2023-03-17T18:58:29.730Z,73.78
2023-03-17T19:03:35.876Z,75.29
2023-03-17T19:08:39.958Z,73.42
2023-03-17T19:13:52.531Z,73.48
2023-03-17T19:18:56.490Z,73.15
2023-03-17T19:24:00.880Z,73.33
2023-03-17T19:29:03.174Z,73.12
2023-03-17T19:34:05.368Z,72.94
2023-03-17T19:39:11.078Z,73.34
2023-03-17T19:44:13.131Z,73.29
2023-03-17T19:49:20.111Z,73.54
2023-03-17T19:54:23.388Z,73.20
2023-03-17T19:59:25.663Z,73.26
2023-03-17T20:04:27.664Z,74.47
2023-03-17T20:09:31.055Z,73.57
2023-03-17T20:14:34.702Z,73.64
2023-03-17T20:19:39.473Z,73.52
2023-03-17T20:24:42.476Z,73.70
2023-03-17T20:29:48.181Z,73.93
2023-03-17T20:34:50.844Z,73.91
2023-03-17T20:39:54.894Z,74.13
2023-03-17T20:45:03.400Z,74.30
2023-03-17T20:50:08.663Z,74.07
2023-03-17T20:55:14.764Z,74.47
2023-03-17T21:00:24.800Z,74.77
2023-03-17T21:05:27.772Z,74.90
2023-03-17T21:10:30.058Z,75.01
2023-03-17T21:15:32.388Z,74.98
2023-03-17T21:20:34.311Z,76.68
2023-03-17T21:25:37.175Z,75.21
2023-03-17T21:30:43.108Z,75.45
2023-03-17T21:35:45.456Z,75.65
2023-03-17T21:40:47.598Z,75.79
2023-03-17T21:45:50.673Z,75.86
2023-03-17T21:50:53.518Z,75.73
2023-03-17T21:55:55.587Z,75.51
2023-03-17T22:00:57.629Z,76.43
2023-03-17T22:05:59.805Z,75.86
2023-03-17T22:11:10.193Z,75.88
2023-03-17T22:16:16.628Z,76.01
2023-03-17T22:21:20.863Z,75.87
2023-03-17T22:26:23.060Z,75.94
2023-03-17T22:31:26.498Z,77.29
2023-03-17T22:36:30.259Z,76.47
2023-03-17T22:41:32.565Z,76.17
2023-03-17T22:46:35.359Z,76.16
2023-03-17T22:51:38.219Z,76.36
2023-03-17T22:56:40.228Z,76.28
2023-03-17T23:01:43.003Z,76.82
2023-03-17T23:06:45.228Z,76.62
2023-03-17T23:11:47.386Z,78.40
2023-03-17T23:16:49.340Z,77.15
2023-03-17T23:21:51.365Z,79.32
2023-03-17T23:26:53.529Z,77.37
2023-03-17T23:31:55.420Z,79.30
2023-03-17T23:36:57.381Z,77.60
2023-03-17T23:41:59.469Z,78.03
2023-03-17T23:47:02.382Z,78.19
2023-03-17T23:52:07.272Z,78.34
2023-03-17T23:57:09.307Z,79.66
